CSC3903 ZUTF-VVTS
Flight info
| Callsign | CSC3903 |
|---|---|
| Flight time | 3h 0m |
| Altitude | 35100 |
| Route | ATVAX W234 NIXID B330 QNX V86 BSE R339 WUY W169 RUNEG V41 WL G221 PCA W12 RUNOP |
| Aircraft | A321/M-SDE1FGHILORVWXY/HB1 |
Departure
| Time | 2026-05-07 11:36 |
|---|---|
| Airport | Chengdu Tianfu International Airport (ZUTF) |
Arrival
| Time | 2026-05-07 14:37 |
|---|---|
| Airport | Tan Son Nhat International Airport (VVTS) |
| Time | Latitude | Longitude | Altitude | Speed | Heading |
|---|---|---|---|---|---|
| 2026-05-07 11:23 | 30.31625 | 104.43743 | 1509 ft | 0 kts | 159° |
| 2026-05-07 11:25 | 30.31627 | 104.43742 | 1509 ft | 2 kts | 152° |
| 2026-05-07 11:25 | 30.31640 | 104.43733 | 1509 ft | 2 kts | 159° |
| 2026-05-07 11:26 | 30.31654 | 104.43728 | 1509 ft | 2 kts | 160° |
| 2026-05-07 11:26 | 30.31669 | 104.43721 | 1509 ft | 2 kts | 161° |
| 2026-05-07 11:26 | 30.31684 | 104.43721 | 1509 ft | 2 kts | 202° |
| 2026-05-07 11:26 | 30.31696 | 104.43732 | 1509 ft | 2 kts | 233° |
| 2026-05-07 11:27 | 30.31700 | 104.43741 | 1509 ft | 1 kts | 252° |
| 2026-05-07 11:27 | 30.31702 | 104.43748 | 1509 ft | 0 kts | 253° |
| 2026-05-07 11:29 | 30.31696 | 104.43731 | 1509 ft | 7 kts | 250° |
| 2026-05-07 11:29 | 30.31680 | 104.43644 | 1509 ft | 15 kts | 279° |
| 2026-05-07 11:30 | 30.31749 | 104.43498 | 1509 ft | 16 kts | 304° |
| 2026-05-07 11:30 | 30.31788 | 104.43428 | 1509 ft | 16 kts | 287° |
| 2026-05-07 11:30 | 30.31747 | 104.43347 | 1509 ft | 16 kts | 208° |
| 2026-05-07 11:30 | 30.31617 | 104.43286 | 1509 ft | 21 kts | 199° |
| 2026-05-07 11:31 | 30.31480 | 104.43223 | 1509 ft | 21 kts | 201° |
| 2026-05-07 11:31 | 30.31349 | 104.43160 | 1509 ft | 21 kts | 202° |
| 2026-05-07 11:31 | 30.31217 | 104.43106 | 1509 ft | 20 kts | 200° |
| 2026-05-07 11:31 | 30.31090 | 104.43040 | 1509 ft | 20 kts | 213° |
| 2026-05-07 11:32 | 30.30835 | 104.42937 | 1509 ft | 19 kts | 202° |
| 2026-05-07 11:32 | 30.30712 | 104.42873 | 1509 ft | 19 kts | 205° |
| 2026-05-07 11:32 | 30.30590 | 104.42810 | 1509 ft | 19 kts | 202° |
| 2026-05-07 11:33 | 30.30469 | 104.42757 | 1509 ft | 19 kts | 203° |
| 2026-05-07 11:33 | 30.30348 | 104.42694 | 1509 ft | 22 kts | 202° |
| 2026-05-07 11:33 | 30.30199 | 104.42609 | 1509 ft | 23 kts | 198° |
| 2026-05-07 11:33 | 30.30050 | 104.42545 | 1509 ft | 23 kts | 201° |
| 2026-05-07 11:34 | 30.29906 | 104.42483 | 1509 ft | 22 kts | 199° |
| 2026-05-07 11:34 | 30.29775 | 104.42403 | 1509 ft | 21 kts | 233° |
| 2026-05-07 11:34 | 30.29714 | 104.42292 | 1509 ft | 18 kts | 213° |
| 2026-05-07 11:34 | 30.29600 | 104.42227 | 1509 ft | 19 kts | 200° |
| 2026-05-07 11:35 | 30.29481 | 104.42174 | 1509 ft | 19 kts | 201° |
| 2026-05-07 11:35 | 30.29363 | 104.42114 | 1509 ft | 18 kts | 228° |
| 2026-05-07 11:35 | 30.29357 | 104.41984 | 1509 ft | 17 kts | 297° |
| 2026-05-07 11:35 | 30.29476 | 104.41960 | 1509 ft | 24 kts | 21° |
| 2026-05-07 11:36 | 30.29801 | 104.42121 | 1509 ft | 87 kts | 24° |
| 2026-05-07 11:36 | 30.30579 | 104.42482 | 1510 ft | 152 kts | 23° |
| 2026-05-07 11:36 | 30.31697 | 104.43005 | 1795 ft | 181 kts | 22° |
| 2026-05-07 11:36 | 30.32803 | 104.43496 | 2511 ft | 181 kts | 20° |
| 2026-05-07 11:37 | 30.33961 | 104.43939 | 3234 ft | 176 kts | 16° |
| 2026-05-07 11:37 | 30.35177 | 104.44061 | 3678 ft | 180 kts | 359° |
| 2026-05-07 11:37 | 30.36443 | 104.44048 | 4005 ft | 189 kts | 5° |
| 2026-05-07 11:37 | 30.37777 | 104.44326 | 4272 ft | 201 kts | 26° |
| 2026-05-07 11:38 | 30.38811 | 104.45434 | 4542 ft | 211 kts | 60° |
| 2026-05-07 11:38 | 30.39157 | 104.47035 | 4802 ft | 225 kts | 86° |
| 2026-05-07 11:38 | 30.39220 | 104.48969 | 5139 ft | 243 kts | 88° |
| 2026-05-07 11:38 | 30.39286 | 104.51009 | 5604 ft | 256 kts | 87° |
| 2026-05-07 11:39 | 30.39336 | 104.53012 | 6223 ft | 262 kts | 87° |
| 2026-05-07 11:39 | 30.39380 | 104.55172 | 6723 ft | 273 kts | 91° |
| 2026-05-07 11:39 | 30.38955 | 104.57307 | 7364 ft | 280 kts | 113° |
| 2026-05-07 11:39 | 30.38069 | 104.59298 | 8106 ft | 282 kts | 117° |
| 2026-05-07 11:40 | 30.37135 | 104.61244 | 8725 ft | 286 kts | 117° |
| 2026-05-07 11:40 | 30.35925 | 104.63080 | 9360 ft | 293 kts | 138° |
| 2026-05-07 11:40 | 30.34249 | 104.64405 | 10036 ft | 296 kts | 146° |
| 2026-05-07 11:40 | 30.32524 | 104.65599 | 10524 ft | 305 kts | 148° |
| 2026-05-07 11:41 | 30.30712 | 104.66841 | 10803 ft | 321 kts | 148° |
| 2026-05-07 11:41 | 30.28699 | 104.68188 | 11098 ft | 337 kts | 150° |
| 2026-05-07 11:41 | 30.26579 | 104.69509 | 11383 ft | 353 kts | 150° |
| 2026-05-07 11:41 | 30.24361 | 104.70879 | 11661 ft | 369 kts | 150° |
| 2026-05-07 11:42 | 30.22051 | 104.72306 | 11933 ft | 384 kts | 150° |
| 2026-05-07 11:42 | 30.19626 | 104.73805 | 12200 ft | 399 kts | 150° |
| 2026-05-07 11:42 | 30.17137 | 104.75343 | 12552 ft | 411 kts | 150° |
| 2026-05-07 11:42 | 30.14607 | 104.76905 | 13153 ft | 416 kts | 150° |
| 2026-05-07 11:43 | 30.12130 | 104.78432 | 13785 ft | 418 kts | 150° |
| 2026-05-07 11:43 | 30.09527 | 104.80037 | 14393 ft | 422 kts | 150° |
| 2026-05-07 11:43 | 30.06936 | 104.81635 | 14767 ft | 425 kts | 150° |
| 2026-05-07 11:43 | 30.04381 | 104.83128 | 14889 ft | 426 kts | 154° |
| 2026-05-07 11:44 | 30.01539 | 104.84369 | 15153 ft | 433 kts | 162° |
| 2026-05-07 11:44 | 29.98610 | 104.85208 | 15825 ft | 435 kts | 167° |
| 2026-05-07 11:44 | 29.95662 | 104.85901 | 16498 ft | 435 kts | 167° |
| 2026-05-07 11:44 | 29.92716 | 104.86708 | 17051 ft | 438 kts | 164° |
| 2026-05-07 11:45 | 29.89790 | 104.87704 | 17587 ft | 441 kts | 162° |
| 2026-05-07 11:45 | 29.86859 | 104.88769 | 18099 ft | 445 kts | 161° |
| 2026-05-07 11:45 | 29.83913 | 104.89851 | 18614 ft | 448 kts | 161° |
| 2026-05-07 11:45 | 29.80927 | 104.90959 | 19128 ft | 450 kts | 161° |
| 2026-05-07 11:46 | 29.77950 | 104.92067 | 19629 ft | 453 kts | 161° |
| 2026-05-07 11:46 | 29.74953 | 104.93184 | 20148 ft | 454 kts | 161° |
| 2026-05-07 11:46 | 29.71994 | 104.94291 | 21048 ft | 446 kts | 161° |
| 2026-05-07 11:46 | 29.69084 | 104.95381 | 21752 ft | 442 kts | 162° |
| 2026-05-07 11:47 | 29.66164 | 104.96472 | 22097 ft | 446 kts | 162° |
| 2026-05-07 11:47 | 29.63210 | 104.97576 | 22439 ft | 450 kts | 162° |
| 2026-05-07 11:47 | 29.60216 | 104.98692 | 22821 ft | 453 kts | 163° |
| 2026-05-07 11:47 | 29.57225 | 104.99805 | 23190 ft | 456 kts | 163° |
| 2026-05-07 11:48 | 29.54216 | 105.00924 | 23626 ft | 456 kts | 163° |
| 2026-05-07 11:48 | 29.51220 | 105.02039 | 24137 ft | 455 kts | 164° |
| 2026-05-07 11:48 | 29.48228 | 105.03168 | 24616 ft | 455 kts | 163° |
| 2026-05-07 11:48 | 29.45247 | 105.04317 | 25046 ft | 455 kts | 163° |
| 2026-05-07 11:49 | 29.42263 | 105.05472 | 25450 ft | 456 kts | 164° |
| 2026-05-07 11:49 | 29.39252 | 105.06634 | 25843 ft | 456 kts | 164° |
| 2026-05-07 11:49 | 29.36252 | 105.07789 | 26226 ft | 457 kts | 164° |
| 2026-05-07 11:49 | 29.33251 | 105.08943 | 26598 ft | 458 kts | 165° |
| 2026-05-07 11:50 | 29.30244 | 105.10096 | 26959 ft | 458 kts | 165° |
| 2026-05-07 11:50 | 29.27230 | 105.11252 | 27313 ft | 459 kts | 165° |
| 2026-05-07 11:50 | 29.24208 | 105.12411 | 27667 ft | 460 kts | 165° |
| 2026-05-07 11:50 | 29.21187 | 105.13572 | 28036 ft | 460 kts | 165° |
| 2026-05-07 11:51 | 29.18152 | 105.14736 | 28418 ft | 459 kts | 165° |
| 2026-05-07 11:51 | 29.15140 | 105.15889 | 28799 ft | 458 kts | 165° |
| 2026-05-07 11:51 | 29.12136 | 105.17037 | 29164 ft | 457 kts | 165° |
| 2026-05-07 11:51 | 29.09136 | 105.18184 | 29502 ft | 457 kts | 165° |
| 2026-05-07 11:52 | 29.06133 | 105.19331 | 29808 ft | 457 kts | 165° |
| 2026-05-07 11:52 | 29.03127 | 105.20479 | 30076 ft | 459 kts | 165° |
| 2026-05-07 11:52 | 29.00116 | 105.21627 | 30325 ft | 460 kts | 165° |
| 2026-05-07 11:52 | 28.97070 | 105.22787 | 30565 ft | 461 kts | 165° |
| 2026-05-07 11:53 | 28.94041 | 105.23940 | 30810 ft | 462 kts | 165° |
| 2026-05-07 11:53 | 28.91002 | 105.25097 | 31082 ft | 463 kts | 165° |
| 2026-05-07 11:53 | 28.87961 | 105.26252 | 31377 ft | 462 kts | 165° |
| 2026-05-07 11:53 | 28.84931 | 105.27399 | 31675 ft | 462 kts | 165° |
| 2026-05-07 11:54 | 28.81903 | 105.28545 | 31965 ft | 461 kts | 165° |
| 2026-05-07 11:54 | 28.78881 | 105.29688 | 32253 ft | 460 kts | 165° |
| 2026-05-07 11:54 | 28.75841 | 105.30840 | 32520 ft | 460 kts | 165° |
| 2026-05-07 11:54 | 28.72824 | 105.31982 | 32771 ft | 460 kts | 165° |
| 2026-05-07 11:55 | 28.69807 | 105.33124 | 33035 ft | 459 kts | 165° |
| 2026-05-07 11:55 | 28.66792 | 105.34265 | 33137 ft | 460 kts | 166° |
| 2026-05-07 11:55 | 28.63773 | 105.35406 | 33149 ft | 459 kts | 166° |
| 2026-05-07 11:56 | 28.57744 | 105.37684 | 33157 ft | 459 kts | 165° |
| 2026-05-07 11:56 | 28.51694 | 105.39968 | 33159 ft | 459 kts | 165° |
| 2026-05-07 11:57 | 28.45659 | 105.42243 | 33159 ft | 459 kts | 165° |
| 2026-05-07 11:57 | 28.39629 | 105.44515 | 33158 ft | 459 kts | 165° |
| 2026-05-07 11:58 | 28.33579 | 105.46790 | 33159 ft | 459 kts | 166° |
| 2026-05-07 11:58 | 28.27552 | 105.49055 | 33159 ft | 459 kts | 166° |
| 2026-05-07 11:59 | 28.21508 | 105.51323 | 33159 ft | 459 kts | 166° |
| 2026-05-07 11:59 | 28.15476 | 105.53584 | 33159 ft | 459 kts | 166° |
| 2026-05-07 12:00 | 28.09708 | 105.55742 | 33160 ft | 459 kts | 166° |
| 2026-05-07 12:00 | 28.03371 | 105.57618 | 33322 ft | 458 kts | 173° |
| 2026-05-07 12:00 | 28.00246 | 105.58212 | 33630 ft | 454 kts | 176° |
| 2026-05-07 12:01 | 27.97119 | 105.58704 | 33933 ft | 452 kts | 176° |
| 2026-05-07 12:01 | 27.94015 | 105.59186 | 34182 ft | 451 kts | 176° |
| 2026-05-07 12:01 | 27.90872 | 105.59676 | 34415 ft | 451 kts | 176° |
| 2026-05-07 12:01 | 27.87763 | 105.60201 | 34647 ft | 452 kts | 174° |
| 2026-05-07 12:02 | 27.84660 | 105.60905 | 34881 ft | 453 kts | 171° |
| 2026-05-07 12:02 | 27.81590 | 105.61813 | 35098 ft | 454 kts | 167° |
| 2026-05-07 12:02 | 27.78590 | 105.62914 | 35169 ft | 457 kts | 164° |
| 2026-05-07 12:03 | 27.72715 | 105.65747 | 35183 ft | 460 kts | 157° |
| 2026-05-07 12:03 | 27.67048 | 105.69139 | 35185 ft | 460 kts | 158° |
| 2026-05-07 12:04 | 27.61329 | 105.72277 | 35185 ft | 460 kts | 158° |
| 2026-05-07 12:04 | 27.55591 | 105.75386 | 35185 ft | 460 kts | 159° |
| 2026-05-07 12:05 | 27.49819 | 105.78502 | 35186 ft | 460 kts | 159° |
| 2026-05-07 12:05 | 27.44061 | 105.81608 | 35186 ft | 460 kts | 159° |
| 2026-05-07 12:06 | 27.38313 | 105.84703 | 35186 ft | 460 kts | 159° |
| 2026-05-07 12:06 | 27.32568 | 105.87793 | 35185 ft | 460 kts | 159° |
| 2026-05-07 12:07 | 27.26802 | 105.90891 | 35187 ft | 459 kts | 159° |
| 2026-05-07 12:07 | 27.21056 | 105.93973 | 35186 ft | 459 kts | 159° |
| 2026-05-07 12:08 | 27.15310 | 105.97050 | 35186 ft | 460 kts | 159° |
| 2026-05-07 12:08 | 27.09540 | 106.00108 | 35185 ft | 458 kts | 160° |
| 2026-05-07 12:09 | 27.03631 | 106.02598 | 35186 ft | 455 kts | 167° |
| 2026-05-07 12:09 | 26.97552 | 106.04277 | 35186 ft | 452 kts | 174° |
| 2026-05-07 12:10 | 26.91387 | 106.05433 | 35186 ft | 453 kts | 174° |
| 2026-05-07 12:10 | 26.85161 | 106.06585 | 35186 ft | 454 kts | 174° |
| 2026-05-07 12:11 | 26.78977 | 106.07739 | 35186 ft | 454 kts | 174° |
| 2026-05-07 12:11 | 26.72787 | 106.08897 | 35186 ft | 454 kts | 174° |
| 2026-05-07 12:12 | 26.66572 | 106.10058 | 35186 ft | 454 kts | 174° |
| 2026-05-07 12:12 | 26.60378 | 106.11215 | 35186 ft | 454 kts | 174° |
| 2026-05-07 12:13 | 26.54187 | 106.12369 | 35186 ft | 454 kts | 174° |
| 2026-05-07 12:13 | 26.47999 | 106.13522 | 35186 ft | 454 kts | 174° |
| 2026-05-07 12:14 | 26.41787 | 106.14677 | 35186 ft | 454 kts | 174° |
| 2026-05-07 12:14 | 26.35591 | 106.15828 | 35186 ft | 454 kts | 174° |
| 2026-05-07 12:15 | 26.29401 | 106.16983 | 35186 ft | 454 kts | 174° |
| 2026-05-07 12:15 | 26.23186 | 106.18143 | 35186 ft | 454 kts | 174° |
| 2026-05-07 12:16 | 26.16998 | 106.19296 | 35186 ft | 454 kts | 174° |
| 2026-05-07 12:16 | 26.10802 | 106.20448 | 35186 ft | 454 kts | 174° |
| 2026-05-07 12:17 | 26.04610 | 106.21597 | 35186 ft | 454 kts | 174° |
| 2026-05-07 12:17 | 25.98395 | 106.22750 | 35186 ft | 454 kts | 174° |
| 2026-05-07 12:18 | 25.92199 | 106.23898 | 35186 ft | 454 kts | 174° |
| 2026-05-07 12:18 | 25.85964 | 106.25050 | 35186 ft | 454 kts | 174° |
| 2026-05-07 12:19 | 25.79724 | 106.26199 | 35186 ft | 454 kts | 174° |
| 2026-05-07 12:19 | 25.73532 | 106.27342 | 35186 ft | 454 kts | 174° |
| 2026-05-07 12:20 | 25.67341 | 106.28484 | 35186 ft | 454 kts | 174° |
| 2026-05-07 12:20 | 25.61134 | 106.29628 | 35186 ft | 454 kts | 174° |
| 2026-05-07 12:21 | 25.54924 | 106.30771 | 35186 ft | 454 kts | 174° |
| 2026-05-07 12:21 | 25.48728 | 106.31910 | 35186 ft | 454 kts | 174° |
| 2026-05-07 12:22 | 25.42532 | 106.33048 | 35186 ft | 454 kts | 174° |
| 2026-05-07 12:22 | 25.36317 | 106.34189 | 35184 ft | 454 kts | 174° |
| 2026-05-07 12:23 | 25.30122 | 106.35324 | 35181 ft | 454 kts | 174° |
| 2026-05-07 12:23 | 25.23925 | 106.36459 | 35177 ft | 454 kts | 174° |
| 2026-05-07 12:24 | 25.17658 | 106.37605 | 35174 ft | 454 kts | 174° |
| 2026-05-07 12:24 | 25.11464 | 106.38736 | 35170 ft | 454 kts | 174° |
| 2026-05-07 12:25 | 25.05264 | 106.39862 | 35167 ft | 454 kts | 173° |
| 2026-05-07 12:25 | 24.99070 | 106.40989 | 35163 ft | 453 kts | 172° |
| 2026-05-07 12:26 | 24.92872 | 106.42112 | 35160 ft | 452 kts | 172° |
| 2026-05-07 12:26 | 24.86685 | 106.43235 | 35156 ft | 452 kts | 172° |
| 2026-05-07 12:27 | 24.80512 | 106.44348 | 35153 ft | 452 kts | 172° |
| 2026-05-07 12:27 | 24.74316 | 106.45465 | 35149 ft | 452 kts | 172° |
| 2026-05-07 12:28 | 24.68149 | 106.46577 | 35146 ft | 452 kts | 172° |
| 2026-05-07 12:28 | 24.61977 | 106.47689 | 35142 ft | 452 kts | 172° |
| 2026-05-07 12:29 | 24.55806 | 106.48800 | 35139 ft | 452 kts | 172° |
| 2026-05-07 12:29 | 24.49610 | 106.49914 | 35143 ft | 452 kts | 172° |
| 2026-05-07 12:30 | 24.43439 | 106.51022 | 35182 ft | 452 kts | 172° |
| 2026-05-07 12:30 | 24.37266 | 106.52129 | 35202 ft | 452 kts | 172° |
| 2026-05-07 12:31 | 24.31073 | 106.53239 | 35209 ft | 452 kts | 172° |
| 2026-05-07 12:31 | 24.24910 | 106.54343 | 35189 ft | 452 kts | 172° |
| 2026-05-07 12:32 | 24.18737 | 106.55448 | 35127 ft | 452 kts | 172° |
| 2026-05-07 12:32 | 24.12571 | 106.56550 | 35047 ft | 452 kts | 172° |
| 2026-05-07 12:33 | 24.03282 | 106.58209 | 34986 ft | 453 kts | 172° |
| 2026-05-07 12:33 | 23.97180 | 106.59758 | 34975 ft | 455 kts | 161° |
| 2026-05-07 12:34 | 23.91498 | 106.62703 | 34971 ft | 456 kts | 148° |
| 2026-05-07 12:34 | 23.86493 | 106.66991 | 34969 ft | 458 kts | 136° |
| 2026-05-07 12:35 | 23.82154 | 106.72034 | 34969 ft | 458 kts | 133° |
| 2026-05-07 12:35 | 23.77861 | 106.77128 | 34969 ft | 458 kts | 133° |
| 2026-05-07 12:36 | 23.73536 | 106.82222 | 34969 ft | 458 kts | 133° |
| 2026-05-07 12:36 | 23.69210 | 106.87290 | 34968 ft | 459 kts | 133° |
| 2026-05-07 12:37 | 23.64863 | 106.92371 | 34968 ft | 461 kts | 133° |
| 2026-05-07 12:37 | 23.60506 | 106.97458 | 34969 ft | 461 kts | 133° |
| 2026-05-07 12:38 | 23.56127 | 107.02564 | 34969 ft | 462 kts | 133° |
| 2026-05-07 12:38 | 23.51758 | 107.07656 | 34969 ft | 462 kts | 133° |
| 2026-05-07 12:39 | 23.47388 | 107.12745 | 34969 ft | 462 kts | 133° |
| 2026-05-07 12:39 | 23.42998 | 107.17849 | 34969 ft | 462 kts | 133° |
| 2026-05-07 12:40 | 23.38625 | 107.22929 | 34969 ft | 462 kts | 133° |
| 2026-05-07 12:40 | 23.34237 | 107.28020 | 34969 ft | 462 kts | 133° |
| 2026-05-07 12:41 | 23.29857 | 107.33097 | 34969 ft | 462 kts | 133° |
| 2026-05-07 12:41 | 23.25459 | 107.38190 | 34969 ft | 462 kts | 133° |
| 2026-05-07 12:42 | 23.21076 | 107.43259 | 34969 ft | 462 kts | 133° |
| 2026-05-07 12:42 | 23.16690 | 107.48326 | 34969 ft | 463 kts | 133° |
| 2026-05-07 12:43 | 23.12286 | 107.53408 | 34969 ft | 463 kts | 133° |
| 2026-05-07 12:43 | 23.07896 | 107.58468 | 34969 ft | 463 kts | 133° |
| 2026-05-07 12:44 | 23.03506 | 107.63523 | 34969 ft | 463 kts | 133° |
| 2026-05-07 12:44 | 22.99119 | 107.68594 | 34969 ft | 463 kts | 133° |
| 2026-05-07 12:45 | 22.94726 | 107.73675 | 34969 ft | 463 kts | 133° |
| 2026-05-07 12:45 | 22.90336 | 107.78729 | 34969 ft | 463 kts | 133° |
| 2026-05-07 12:46 | 22.85922 | 107.83773 | 34969 ft | 463 kts | 133° |
| 2026-05-07 12:46 | 22.81497 | 107.88827 | 34969 ft | 463 kts | 133° |
| 2026-05-07 12:47 | 22.77097 | 107.93864 | 34969 ft | 463 kts | 133° |
| 2026-05-07 12:47 | 22.72697 | 107.98899 | 34969 ft | 463 kts | 133° |
| 2026-05-07 12:48 | 22.68297 | 108.03931 | 34969 ft | 463 kts | 133° |
| 2026-05-07 12:48 | 22.63822 | 108.08914 | 34966 ft | 463 kts | 137° |
| 2026-05-07 12:49 | 22.58602 | 108.12916 | 34968 ft | 464 kts | 152° |
| 2026-05-07 12:49 | 22.52650 | 108.15441 | 34968 ft | 463 kts | 166° |
| 2026-05-07 12:50 | 22.46308 | 108.16501 | 34969 ft | 463 kts | 174° |
| 2026-05-07 12:50 | 22.39936 | 108.17183 | 34969 ft | 463 kts | 175° |
| 2026-05-07 12:51 | 22.33566 | 108.17877 | 34969 ft | 463 kts | 174° |
| 2026-05-07 12:51 | 22.27198 | 108.18592 | 34969 ft | 463 kts | 174° |
| 2026-05-07 12:52 | 22.20807 | 108.19316 | 34969 ft | 463 kts | 174° |
| 2026-05-07 12:52 | 22.14470 | 108.20035 | 34969 ft | 463 kts | 174° |
| 2026-05-07 12:53 | 22.08219 | 108.20744 | 34969 ft | 463 kts | 174° |
| 2026-05-07 12:53 | 22.02348 | 108.21409 | 34969 ft | 463 kts | 174° |
| 2026-05-07 12:54 | 21.96337 | 108.22088 | 34969 ft | 463 kts | 174° |
| 2026-05-07 12:54 | 21.89964 | 108.22808 | 34969 ft | 463 kts | 174° |
| 2026-05-07 12:55 | 21.83572 | 108.23527 | 34969 ft | 463 kts | 174° |
| 2026-05-07 12:55 | 21.77183 | 108.24246 | 34969 ft | 463 kts | 174° |
| 2026-05-07 12:56 | 21.70819 | 108.24965 | 34969 ft | 463 kts | 174° |
| 2026-05-07 12:56 | 21.64456 | 108.25683 | 34969 ft | 463 kts | 174° |
| 2026-05-07 12:57 | 21.58068 | 108.26404 | 34969 ft | 463 kts | 174° |
| 2026-05-07 12:57 | 21.51693 | 108.27122 | 34969 ft | 463 kts | 174° |
| 2026-05-07 12:58 | 21.45305 | 108.27841 | 34969 ft | 463 kts | 174° |
| 2026-05-07 12:58 | 21.38935 | 108.28560 | 34969 ft | 463 kts | 174° |
| 2026-05-07 12:59 | 21.32540 | 108.29280 | 34969 ft | 463 kts | 174° |
| 2026-05-07 12:59 | 21.26163 | 108.29924 | 34968 ft | 463 kts | 177° |
| 2026-05-07 13:00 | 21.19767 | 108.29923 | 34968 ft | 462 kts | 184° |
| 2026-05-07 13:00 | 21.13400 | 108.29138 | 34969 ft | 462 kts | 189° |
| 2026-05-07 13:01 | 21.07097 | 108.28053 | 34969 ft | 462 kts | 189° |
| 2026-05-07 13:01 | 21.00795 | 108.26980 | 34969 ft | 460 kts | 188° |
| 2026-05-07 13:02 | 20.94532 | 108.25931 | 34969 ft | 457 kts | 188° |
| 2026-05-07 13:02 | 20.88271 | 108.24888 | 34969 ft | 456 kts | 188° |
| 2026-05-07 13:03 | 20.82035 | 108.23851 | 34969 ft | 456 kts | 188° |
| 2026-05-07 13:03 | 20.75795 | 108.22809 | 34969 ft | 456 kts | 188° |
| 2026-05-07 13:04 | 20.69533 | 108.21763 | 34957 ft | 456 kts | 188° |
| 2026-05-07 13:04 | 20.63298 | 108.20721 | 34930 ft | 456 kts | 188° |
| 2026-05-07 13:05 | 20.57025 | 108.19985 | 34918 ft | 456 kts | 178° |
| 2026-05-07 13:05 | 20.50829 | 108.21023 | 34916 ft | 454 kts | 161° |
| 2026-05-07 13:06 | 20.45187 | 108.23927 | 34915 ft | 452 kts | 144° |
| 2026-05-07 13:06 | 20.40478 | 108.28277 | 34915 ft | 451 kts | 134° |
| 2026-05-07 13:07 | 20.36033 | 108.32935 | 34914 ft | 451 kts | 134° |
| 2026-05-07 13:07 | 20.31563 | 108.37600 | 34914 ft | 451 kts | 134° |
| 2026-05-07 13:08 | 20.27099 | 108.42230 | 34914 ft | 451 kts | 135° |
| 2026-05-07 13:08 | 20.22623 | 108.46858 | 34914 ft | 451 kts | 135° |
| 2026-05-07 13:09 | 20.18145 | 108.51482 | 34914 ft | 451 kts | 135° |
| 2026-05-07 13:09 | 20.13652 | 108.56117 | 34914 ft | 451 kts | 135° |
| 2026-05-07 13:10 | 20.09174 | 108.60731 | 34914 ft | 451 kts | 135° |
| 2026-05-07 13:10 | 20.04686 | 108.65353 | 34914 ft | 451 kts | 135° |
| 2026-05-07 13:11 | 20.00223 | 108.69560 | 34875 ft | 452 kts | 145° |
| 2026-05-07 13:11 | 19.94592 | 108.72441 | 34785 ft | 455 kts | 162° |
| 2026-05-07 13:12 | 19.88498 | 108.74159 | 34690 ft | 455 kts | 165° |
| 2026-05-07 13:12 | 19.82387 | 108.75799 | 34592 ft | 455 kts | 165° |
| 2026-05-07 13:13 | 19.76266 | 108.77474 | 34493 ft | 456 kts | 165° |
| 2026-05-07 13:13 | 19.70168 | 108.79159 | 34395 ft | 456 kts | 165° |
| 2026-05-07 13:14 | 19.64069 | 108.80849 | 34297 ft | 456 kts | 165° |
| 2026-05-07 13:14 | 19.57940 | 108.82549 | 34198 ft | 456 kts | 165° |
| 2026-05-07 13:15 | 19.51822 | 108.84244 | 34100 ft | 457 kts | 165° |
| 2026-05-07 13:15 | 19.45710 | 108.85937 | 34002 ft | 457 kts | 165° |
| 2026-05-07 13:16 | 19.39598 | 108.87628 | 33903 ft | 457 kts | 165° |
| 2026-05-07 13:16 | 19.33459 | 108.89326 | 33816 ft | 457 kts | 165° |
| 2026-05-07 13:17 | 19.27341 | 108.91016 | 33815 ft | 457 kts | 165° |
| 2026-05-07 13:17 | 19.21223 | 108.92705 | 33815 ft | 457 kts | 165° |
| 2026-05-07 13:18 | 19.15078 | 108.94400 | 33814 ft | 457 kts | 165° |
| 2026-05-07 13:18 | 19.08960 | 108.96087 | 33814 ft | 457 kts | 165° |
| 2026-05-07 13:19 | 19.02830 | 108.97775 | 33814 ft | 458 kts | 164° |
| 2026-05-07 13:19 | 18.96695 | 108.99460 | 33814 ft | 459 kts | 164° |
| 2026-05-07 13:20 | 18.90539 | 109.01152 | 33815 ft | 458 kts | 163° |
| 2026-05-07 13:20 | 18.84412 | 109.02830 | 33814 ft | 457 kts | 163° |
| 2026-05-07 13:21 | 18.78293 | 109.04508 | 33814 ft | 458 kts | 163° |
| 2026-05-07 13:21 | 18.72139 | 109.06196 | 33815 ft | 458 kts | 163° |
| 2026-05-07 13:22 | 18.65998 | 109.07880 | 33841 ft | 459 kts | 163° |
| 2026-05-07 13:22 | 18.59854 | 109.09563 | 33858 ft | 459 kts | 163° |
| 2026-05-07 13:23 | 18.53712 | 109.11244 | 33864 ft | 459 kts | 163° |
| 2026-05-07 13:23 | 18.47544 | 109.12931 | 33867 ft | 459 kts | 163° |
| 2026-05-07 13:24 | 18.41393 | 109.14611 | 33867 ft | 460 kts | 163° |
| 2026-05-07 13:24 | 18.35220 | 109.16215 | 33867 ft | 461 kts | 167° |
| 2026-05-07 13:25 | 18.28878 | 109.17127 | 33867 ft | 462 kts | 174° |
| 2026-05-07 13:25 | 18.22482 | 109.17265 | 33868 ft | 463 kts | 179° |
| 2026-05-07 13:26 | 18.16079 | 109.17161 | 33868 ft | 463 kts | 179° |
| 2026-05-07 13:26 | 18.09678 | 109.17064 | 33868 ft | 463 kts | 179° |
| 2026-05-07 13:27 | 18.03226 | 109.16976 | 33868 ft | 463 kts | 179° |
| 2026-05-07 13:27 | 17.96806 | 109.16892 | 33868 ft | 463 kts | 179° |
| 2026-05-07 13:28 | 17.90403 | 109.16809 | 33868 ft | 463 kts | 179° |
| 2026-05-07 13:28 | 17.83970 | 109.16724 | 33868 ft | 463 kts | 179° |
| 2026-05-07 13:29 | 17.77565 | 109.16640 | 33868 ft | 463 kts | 179° |
| 2026-05-07 13:29 | 17.71164 | 109.16556 | 33868 ft | 463 kts | 179° |
| 2026-05-07 13:30 | 17.64723 | 109.16476 | 33868 ft | 463 kts | 179° |
| 2026-05-07 13:30 | 17.58211 | 109.16425 | 33867 ft | 463 kts | 178° |
| 2026-05-07 13:31 | 17.51753 | 109.16879 | 33868 ft | 462 kts | 171° |
| 2026-05-07 13:31 | 17.45412 | 109.18127 | 33868 ft | 460 kts | 164° |
| 2026-05-07 13:32 | 17.39226 | 109.20107 | 33868 ft | 460 kts | 160° |
| 2026-05-07 13:32 | 17.33124 | 109.22246 | 33868 ft | 460 kts | 160° |
| 2026-05-07 13:33 | 17.27003 | 109.24381 | 33868 ft | 460 kts | 160° |
| 2026-05-07 13:33 | 17.20885 | 109.26506 | 33868 ft | 460 kts | 160° |
| 2026-05-07 13:34 | 17.11680 | 109.29696 | 33868 ft | 460 kts | 160° |
| 2026-05-07 13:35 | 17.05552 | 109.31816 | 33869 ft | 459 kts | 160° |
| 2026-05-07 13:35 | 16.99454 | 109.33925 | 33872 ft | 458 kts | 160° |
| 2026-05-07 13:36 | 16.93341 | 109.36039 | 33875 ft | 457 kts | 160° |
| 2026-05-07 13:36 | 16.87155 | 109.37801 | 33877 ft | 459 kts | 167° |
| 2026-05-07 13:37 | 16.80845 | 109.38597 | 33883 ft | 460 kts | 176° |
| 2026-05-07 13:37 | 16.74448 | 109.38417 | 33889 ft | 462 kts | 184° |
| 2026-05-07 13:38 | 16.68097 | 109.37641 | 33893 ft | 462 kts | 185° |
| 2026-05-07 13:38 | 16.61747 | 109.36835 | 33894 ft | 462 kts | 185° |
| 2026-05-07 13:39 | 16.55400 | 109.36043 | 33894 ft | 462 kts | 185° |
| 2026-05-07 13:39 | 16.49033 | 109.35255 | 33894 ft | 462 kts | 185° |
| 2026-05-07 13:40 | 16.42686 | 109.34472 | 33894 ft | 462 kts | 185° |
| 2026-05-07 13:40 | 16.36331 | 109.33689 | 33894 ft | 462 kts | 185° |
| 2026-05-07 13:41 | 16.29953 | 109.32904 | 33894 ft | 462 kts | 185° |
| 2026-05-07 13:41 | 16.23603 | 109.32122 | 33894 ft | 462 kts | 185° |
| 2026-05-07 13:42 | 16.17250 | 109.31341 | 33894 ft | 462 kts | 185° |
| 2026-05-07 13:42 | 16.10899 | 109.30561 | 33894 ft | 462 kts | 185° |
| 2026-05-07 13:43 | 16.04529 | 109.29779 | 33894 ft | 462 kts | 185° |
| 2026-05-07 13:43 | 15.98175 | 109.28999 | 33894 ft | 462 kts | 185° |
| 2026-05-07 13:44 | 15.91829 | 109.28221 | 33894 ft | 462 kts | 185° |
| 2026-05-07 13:44 | 15.85454 | 109.27441 | 33894 ft | 462 kts | 185° |
| 2026-05-07 13:45 | 15.79106 | 109.26665 | 33894 ft | 462 kts | 185° |
| 2026-05-07 13:45 | 15.72754 | 109.25888 | 33894 ft | 462 kts | 185° |
| 2026-05-07 13:46 | 15.66402 | 109.25110 | 33894 ft | 462 kts | 185° |
| 2026-05-07 13:46 | 15.60030 | 109.24331 | 33894 ft | 462 kts | 185° |
| 2026-05-07 13:47 | 15.53683 | 109.23552 | 33894 ft | 462 kts | 185° |
| 2026-05-07 13:47 | 15.47333 | 109.22771 | 33894 ft | 462 kts | 185° |
| 2026-05-07 13:48 | 15.40942 | 109.21986 | 33894 ft | 462 kts | 185° |
| 2026-05-07 13:48 | 15.34614 | 109.21209 | 33894 ft | 462 kts | 185° |
| 2026-05-07 13:49 | 15.28225 | 109.20425 | 33894 ft | 462 kts | 185° |
| 2026-05-07 13:49 | 15.21853 | 109.19644 | 33894 ft | 462 kts | 185° |
| 2026-05-07 13:50 | 15.15469 | 109.18862 | 33894 ft | 462 kts | 185° |
| 2026-05-07 13:50 | 15.09112 | 109.18083 | 33894 ft | 462 kts | 185° |
| 2026-05-07 13:51 | 15.02759 | 109.17306 | 33894 ft | 462 kts | 185° |
| 2026-05-07 13:51 | 14.96392 | 109.16523 | 33895 ft | 460 kts | 185° |
| 2026-05-07 13:52 | 14.90084 | 109.15750 | 33895 ft | 458 kts | 184° |
| 2026-05-07 13:52 | 14.83798 | 109.14984 | 33895 ft | 456 kts | 184° |
| 2026-05-07 13:53 | 14.77531 | 109.14223 | 33894 ft | 457 kts | 184° |
| 2026-05-07 13:53 | 14.71231 | 109.13456 | 33894 ft | 456 kts | 184° |
| 2026-05-07 13:54 | 14.64965 | 109.12692 | 33894 ft | 456 kts | 184° |
| 2026-05-07 13:54 | 14.58700 | 109.11928 | 33894 ft | 456 kts | 184° |
| 2026-05-07 13:55 | 14.52411 | 109.11162 | 33893 ft | 456 kts | 184° |
| 2026-05-07 13:55 | 14.46146 | 109.10399 | 33894 ft | 456 kts | 184° |
| 2026-05-07 13:56 | 14.39889 | 109.09636 | 33894 ft | 456 kts | 184° |
| 2026-05-07 13:56 | 14.33629 | 109.08874 | 33894 ft | 456 kts | 184° |
| 2026-05-07 13:57 | 14.27347 | 109.08110 | 33894 ft | 456 kts | 184° |
| 2026-05-07 13:57 | 14.21090 | 109.07350 | 33895 ft | 455 kts | 184° |
| 2026-05-07 13:58 | 14.14830 | 109.06589 | 33891 ft | 455 kts | 184° |
| 2026-05-07 13:58 | 14.08559 | 109.05826 | 33883 ft | 455 kts | 183° |
| 2026-05-07 13:59 | 14.02323 | 109.04948 | 33875 ft | 457 kts | 188° |
| 2026-05-07 13:59 | 13.96224 | 109.03176 | 33870 ft | 461 kts | 197° |
| 2026-05-07 14:00 | 13.90431 | 109.00359 | 33880 ft | 465 kts | 207° |
| 2026-05-07 14:00 | 13.85025 | 108.96684 | 33889 ft | 466 kts | 211° |
| 2026-05-07 14:01 | 13.79711 | 108.92855 | 33892 ft | 466 kts | 211° |
| 2026-05-07 14:01 | 13.74416 | 108.89054 | 33895 ft | 466 kts | 211° |
| 2026-05-07 14:02 | 13.69088 | 108.85240 | 33893 ft | 466 kts | 211° |
| 2026-05-07 14:02 | 13.63755 | 108.81426 | 33894 ft | 466 kts | 211° |
| 2026-05-07 14:03 | 13.58431 | 108.77625 | 33895 ft | 466 kts | 211° |
| 2026-05-07 14:03 | 13.53167 | 108.73867 | 33872 ft | 466 kts | 211° |
| 2026-05-07 14:03 | 13.50495 | 108.71960 | 33768 ft | 466 kts | 211° |
| 2026-05-07 14:04 | 13.47847 | 108.70070 | 33670 ft | 466 kts | 211° |
| 2026-05-07 14:04 | 13.42549 | 108.66291 | 33473 ft | 466 kts | 211° |
| 2026-05-07 14:05 | 13.37247 | 108.62509 | 33276 ft | 466 kts | 211° |
| 2026-05-07 14:05 | 13.34593 | 108.60617 | 33175 ft | 466 kts | 211° |
| 2026-05-07 14:05 | 13.31921 | 108.58714 | 33076 ft | 466 kts | 211° |
| 2026-05-07 14:06 | 13.26619 | 108.54944 | 32879 ft | 466 kts | 211° |
| 2026-05-07 14:06 | 13.23970 | 108.53059 | 32777 ft | 466 kts | 211° |
| 2026-05-07 14:06 | 13.21316 | 108.51170 | 32679 ft | 466 kts | 211° |
| 2026-05-07 14:06 | 13.18662 | 108.49280 | 32578 ft | 467 kts | 211° |
| 2026-05-07 14:07 | 13.16008 | 108.47391 | 32478 ft | 467 kts | 211° |
| 2026-05-07 14:07 | 13.13337 | 108.45489 | 32377 ft | 467 kts | 211° |
| 2026-05-07 14:07 | 13.10686 | 108.43602 | 32278 ft | 466 kts | 211° |
| 2026-05-07 14:08 | 13.05409 | 108.39847 | 32084 ft | 462 kts | 211° |
| 2026-05-07 14:08 | 13.00181 | 108.36129 | 31887 ft | 458 kts | 212° |
| 2026-05-07 14:09 | 12.94957 | 108.32402 | 31690 ft | 454 kts | 212° |
| 2026-05-07 14:09 | 12.89826 | 108.28732 | 31492 ft | 453 kts | 212° |
| 2026-05-07 14:10 | 12.84626 | 108.25049 | 31296 ft | 454 kts | 212° |
| 2026-05-07 14:10 | 12.79415 | 108.21360 | 31097 ft | 454 kts | 212° |
| 2026-05-07 14:11 | 12.74186 | 108.17651 | 30898 ft | 454 kts | 212° |
| 2026-05-07 14:11 | 12.68997 | 108.13962 | 30699 ft | 455 kts | 213° |
| 2026-05-07 14:12 | 12.64060 | 108.09866 | 30501 ft | 457 kts | 219° |
| 2026-05-07 14:12 | 12.59357 | 108.05416 | 30303 ft | 457 kts | 220° |
| 2026-05-07 14:13 | 12.54727 | 108.01010 | 30105 ft | 458 kts | 220° |
| 2026-05-07 14:13 | 12.50168 | 107.96681 | 29910 ft | 458 kts | 220° |
| 2026-05-07 14:13 | 12.47814 | 107.94447 | 29694 ft | 448 kts | 220° |
| 2026-05-07 14:14 | 12.45536 | 107.92285 | 29470 ft | 445 kts | 220° |
| 2026-05-07 14:14 | 12.43263 | 107.90131 | 29246 ft | 446 kts | 220° |
| 2026-05-07 14:14 | 12.40970 | 107.87958 | 29020 ft | 446 kts | 220° |
| 2026-05-07 14:14 | 12.38695 | 107.85803 | 28796 ft | 446 kts | 220° |
| 2026-05-07 14:15 | 12.36408 | 107.83638 | 28571 ft | 447 kts | 220° |
| 2026-05-07 14:15 | 12.34125 | 107.81476 | 28346 ft | 447 kts | 220° |
| 2026-05-07 14:15 | 12.31872 | 107.79348 | 28124 ft | 447 kts | 220° |
| 2026-05-07 14:15 | 12.29587 | 107.77193 | 27899 ft | 447 kts | 220° |
| 2026-05-07 14:16 | 12.27265 | 107.75004 | 27673 ft | 447 kts | 220° |
| 2026-05-07 14:16 | 12.24968 | 107.72838 | 27448 ft | 448 kts | 220° |
| 2026-05-07 14:16 | 12.22786 | 107.70781 | 27232 ft | 448 kts | 220° |
| 2026-05-07 14:16 | 12.20468 | 107.68595 | 27005 ft | 448 kts | 220° |
| 2026-05-07 14:17 | 12.18174 | 107.66432 | 26780 ft | 448 kts | 220° |
| 2026-05-07 14:17 | 12.15889 | 107.64278 | 26554 ft | 449 kts | 220° |
| 2026-05-07 14:17 | 12.13629 | 107.62148 | 26330 ft | 449 kts | 220° |
| 2026-05-07 14:17 | 12.11319 | 107.59971 | 26105 ft | 449 kts | 220° |
| 2026-05-07 14:18 | 12.09030 | 107.57814 | 25887 ft | 450 kts | 221° |
| 2026-05-07 14:18 | 12.06806 | 107.55719 | 25856 ft | 450 kts | 221° |
| 2026-05-07 14:18 | 12.04472 | 107.53520 | 25846 ft | 450 kts | 221° |
| 2026-05-07 14:18 | 12.02181 | 107.51362 | 25844 ft | 450 kts | 221° |
| 2026-05-07 14:19 | 11.99891 | 107.49205 | 25843 ft | 450 kts | 221° |
| 2026-05-07 14:19 | 11.97596 | 107.47045 | 25843 ft | 450 kts | 221° |
| 2026-05-07 14:19 | 11.95416 | 107.44994 | 25828 ft | 451 kts | 221° |
| 2026-05-07 14:19 | 11.93091 | 107.42807 | 25565 ft | 451 kts | 221° |
| 2026-05-07 14:20 | 11.90795 | 107.40649 | 25216 ft | 451 kts | 221° |
| 2026-05-07 14:20 | 11.88496 | 107.38492 | 24866 ft | 452 kts | 221° |
| 2026-05-07 14:20 | 11.86186 | 107.36335 | 24514 ft | 452 kts | 221° |
| 2026-05-07 14:20 | 11.83873 | 107.34173 | 24163 ft | 453 kts | 221° |
| 2026-05-07 14:21 | 11.81566 | 107.32000 | 23812 ft | 453 kts | 221° |
| 2026-05-07 14:21 | 11.79221 | 107.29786 | 23459 ft | 454 kts | 221° |
| 2026-05-07 14:21 | 11.77004 | 107.27695 | 23121 ft | 451 kts | 221° |
| 2026-05-07 14:21 | 11.74705 | 107.25532 | 22769 ft | 448 kts | 221° |
| 2026-05-07 14:22 | 11.72426 | 107.23389 | 22417 ft | 446 kts | 221° |
| 2026-05-07 14:22 | 11.70218 | 107.21315 | 22070 ft | 433 kts | 221° |
| 2026-05-07 14:22 | 11.68041 | 107.19270 | 21723 ft | 427 kts | 221° |
| 2026-05-07 14:22 | 11.65892 | 107.17253 | 21368 ft | 416 kts | 221° |
| 2026-05-07 14:23 | 11.63802 | 107.15293 | 21014 ft | 407 kts | 221° |
| 2026-05-07 14:23 | 11.61735 | 107.13355 | 20660 ft | 397 kts | 221° |
| 2026-05-07 14:23 | 11.59751 | 107.11495 | 20312 ft | 389 kts | 221° |
| 2026-05-07 14:23 | 11.57798 | 107.09664 | 19962 ft | 381 kts | 221° |
| 2026-05-07 14:24 | 11.55923 | 107.07906 | 19859 ft | 366 kts | 221° |
| 2026-05-07 14:24 | 11.54074 | 107.06173 | 19756 ft | 353 kts | 221° |
| 2026-05-07 14:24 | 11.52294 | 107.04504 | 19290 ft | 351 kts | 222° |
| 2026-05-07 14:24 | 11.50506 | 107.02831 | 18837 ft | 348 kts | 222° |
| 2026-05-07 14:25 | 11.48762 | 107.01199 | 18394 ft | 345 kts | 222° |
| 2026-05-07 14:25 | 11.47145 | 106.99685 | 17978 ft | 343 kts | 222° |
| 2026-05-07 14:25 | 11.45340 | 106.97995 | 17511 ft | 341 kts | 223° |
| 2026-05-07 14:25 | 11.43488 | 106.96513 | 17038 ft | 339 kts | 207° |
| 2026-05-07 14:26 | 11.41287 | 106.95782 | 16608 ft | 338 kts | 195° |
| 2026-05-07 14:26 | 11.39054 | 106.95258 | 16162 ft | 336 kts | 194° |
| 2026-05-07 14:26 | 11.36815 | 106.94729 | 15664 ft | 336 kts | 195° |
| 2026-05-07 14:26 | 11.34507 | 106.94161 | 15020 ft | 339 kts | 195° |
| 2026-05-07 14:27 | 11.32236 | 106.93583 | 14392 ft | 343 kts | 195° |
| 2026-05-07 14:27 | 11.29937 | 106.92989 | 13769 ft | 345 kts | 196° |
| 2026-05-07 14:27 | 11.27619 | 106.92383 | 13132 ft | 342 kts | 196° |
| 2026-05-07 14:27 | 11.25384 | 106.91795 | 12507 ft | 330 kts | 196° |
| 2026-05-07 14:28 | 11.23217 | 106.91224 | 11881 ft | 319 kts | 196° |
| 2026-05-07 14:28 | 11.21162 | 106.90680 | 11268 ft | 310 kts | 196° |
| 2026-05-07 14:28 | 11.19057 | 106.90121 | 10621 ft | 302 kts | 196° |
| 2026-05-07 14:28 | 11.17112 | 106.89605 | 10049 ft | 294 kts | 196° |
| 2026-05-07 14:29 | 11.15156 | 106.89085 | 9410 ft | 288 kts | 196° |
| 2026-05-07 14:29 | 11.13246 | 106.88578 | 8783 ft | 283 kts | 195° |
| 2026-05-07 14:29 | 11.11382 | 106.88082 | 8166 ft | 278 kts | 195° |
| 2026-05-07 14:29 | 11.09532 | 106.87591 | 7535 ft | 274 kts | 195° |
| 2026-05-07 14:30 | 11.07698 | 106.87104 | 6904 ft | 270 kts | 195° |
| 2026-05-07 14:30 | 11.05885 | 106.86623 | 6274 ft | 267 kts | 195° |
| 2026-05-07 14:30 | 11.04158 | 106.86165 | 5694 ft | 262 kts | 195° |
| 2026-05-07 14:30 | 11.02459 | 106.85714 | 5331 ft | 250 kts | 195° |
| 2026-05-07 14:31 | 11.00803 | 106.85275 | 4860 ft | 244 kts | 194° |
| 2026-05-07 14:31 | 10.99188 | 106.84847 | 4360 ft | 240 kts | 194° |
| 2026-05-07 14:31 | 10.97597 | 106.84424 | 3958 ft | 241 kts | 194° |
| 2026-05-07 14:31 | 10.95989 | 106.83998 | 3692 ft | 238 kts | 194° |
| 2026-05-07 14:32 | 10.94406 | 106.83579 | 3418 ft | 236 kts | 194° |
| 2026-05-07 14:32 | 10.92823 | 106.83160 | 3143 ft | 234 kts | 194° |
| 2026-05-07 14:32 | 10.91310 | 106.82759 | 2999 ft | 226 kts | 194° |
| 2026-05-07 14:32 | 10.89832 | 106.82367 | 2988 ft | 211 kts | 195° |
| 2026-05-07 14:33 | 10.88598 | 106.81733 | 2986 ft | 193 kts | 220° |
| 2026-05-07 14:33 | 10.87902 | 106.80621 | 2960 ft | 190 kts | 244° |
| 2026-05-07 14:33 | 10.87406 | 106.79368 | 2713 ft | 190 kts | 246° |
| 2026-05-07 14:33 | 10.86945 | 106.78152 | 2472 ft | 189 kts | 246° |
| 2026-05-07 14:34 | 10.86483 | 106.76928 | 2226 ft | 186 kts | 246° |
| 2026-05-07 14:34 | 10.86033 | 106.75732 | 1970 ft | 175 kts | 246° |
| 2026-05-07 14:34 | 10.85626 | 106.74654 | 1746 ft | 166 kts | 246° |
| 2026-05-07 14:34 | 10.85224 | 106.73591 | 1552 ft | 167 kts | 246° |
| 2026-05-07 14:35 | 10.84808 | 106.72488 | 1334 ft | 158 kts | 246° |
| 2026-05-07 14:35 | 10.84425 | 106.71469 | 1129 ft | 156 kts | 246° |
| 2026-05-07 14:35 | 10.84040 | 106.70452 | 923 ft | 154 kts | 246° |
| 2026-05-07 14:35 | 10.83672 | 106.69473 | 722 ft | 148 kts | 246° |
| 2026-05-07 14:36 | 10.83302 | 106.68494 | 534 ft | 149 kts | 246° |
| 2026-05-07 14:36 | 10.82934 | 106.67519 | 328 ft | 149 kts | 246° |
| 2026-05-07 14:36 | 10.82569 | 106.66543 | 135 ft | 148 kts | 246° |
| 2026-05-07 14:36 | 10.82206 | 106.65588 | 43 ft | 135 kts | 246° |
| 2026-05-07 14:37 | 10.81932 | 106.64877 | 42 ft | 87 kts | 249° |
| 2026-05-07 14:37 | 10.81659 | 106.64349 | 42 ft | 18 kts | 217° |
| 2026-05-07 14:37 | 10.81594 | 106.64310 | 42 ft | 11 kts | 199° |
| 2026-05-07 14:38 | 10.81566 | 106.64302 | 42 ft | 0 kts | 184° |
| 2026-05-07 14:38 | 10.81479 | 106.64315 | 42 ft | 16 kts | 157° |
| 2026-05-07 14:39 | 10.81382 | 106.64353 | 42 ft | 16 kts | 159° |
| 2026-05-07 14:39 | 10.81293 | 106.64388 | 42 ft | 10 kts | 156° |
| 2026-05-07 14:39 | 10.81245 | 106.64430 | 42 ft | 8 kts | 117° |
| 2026-05-07 14:39 | 10.81224 | 106.64489 | 42 ft | 10 kts | 106° |
| 2026-05-07 14:40 | 10.81212 | 106.64562 | 42 ft | 11 kts | 97° |
| 2026-05-07 14:40 | 10.81216 | 106.64644 | 42 ft | 12 kts | 77° |
| 2026-05-07 14:40 | 10.81243 | 106.64734 | 42 ft | 14 kts | 72° |
| 2026-05-07 14:40 | 10.81278 | 106.64828 | 42 ft | 15 kts | 68° |
| 2026-05-07 14:41 | 10.81311 | 106.64911 | 42 ft | 0 kts | 69° |
| 2026-05-07 14:42 | 10.81314 | 106.64921 | 42 ft | 2 kts | 71° |
| 2026-05-07 14:42 | 10.81315 | 106.64925 | 42 ft | 0 kts | 72° |
| 2026-05-07 14:42 | 10.81319 | 106.64936 | 42 ft | 3 kts | 71° |
| 2026-05-07 14:43 | 10.81322 | 106.64958 | 42 ft | 4 kts | 115° |
| 2026-05-07 14:43 | 10.81285 | 106.64982 | 42 ft | 9 kts | 157° |
| 2026-05-07 14:43 | 10.81225 | 106.65004 | 42 ft | 10 kts | 171° |
| 2026-05-07 14:43 | 10.81156 | 106.65035 | 42 ft | 12 kts | 141° |
| 2026-05-07 14:44 | 10.81157 | 106.65092 | 42 ft | 10 kts | 64° |
| 2026-05-07 14:44 | 10.81189 | 106.65172 | 42 ft | 22 kts | 71° |
| 2026-05-07 14:44 | 10.81244 | 106.65314 | 42 ft | 18 kts | 68° |
| 2026-05-07 14:44 | 10.81287 | 106.65425 | 42 ft | 18 kts | 65° |
| 2026-05-07 14:45 | 10.81332 | 106.65547 | 42 ft | 15 kts | 53° |
| 2026-05-07 14:45 | 10.81394 | 106.65569 | 42 ft | 9 kts | 74° |
| 2026-05-07 14:45 | 10.81422 | 106.65633 | 42 ft | 5 kts | 30° |
| 2026-05-07 14:45 | 10.81448 | 106.65631 | 42 ft | 0 kts | 343° |